sensor_id;sensor_type;location;lat;lon;timestamp;pressure;altitude;pressure_sealevel;temperature
54608;BMP280;40506;37.576;-122.034;2022-07-29T00:00:12;101228.38;;;26.20
54608;BMP280;40506;37.576;-122.034;2022-07-29T00:02:13;101275.31;;;26.62
54608;BMP280;40506;37.576;-122.034;2022-07-29T00:04:14;101272.56;;;26.59
54608;BMP280;40506;37.576;-122.034;2022-07-29T00:06:16;101263.88;;;26.53
54608;BMP280;40506;37.576;-122.034;2022-07-29T00:08:17;101261.19;;;26.57
54608;BMP280;40506;37.576;-122.034;2022-07-29T00:10:19;101254.94;;;26.56
54608;BMP280;40506;37.576;-122.034;2022-07-29T00:12:21;101249.94;;;26.62
54608;BMP280;40506;37.576;-122.034;2022-07-29T00:14:23;101272.41;;;26.78
54608;BMP280;40506;37.576;-122.034;2022-07-29T00:16:24;101285.28;;;26.81
54608;BMP280;40506;37.576;-122.034;2022-07-29T00:18:25;101275.91;;;26.82
54608;BMP280;40506;37.576;-122.034;2022-07-29T00:20:27;101280.22;;;26.83
54608;BMP280;40506;37.576;-122.034;2022-07-29T00:22:28;101277.59;;;26.90
54608;BMP280;40506;37.576;-122.034;2022-07-29T00:24:29;101259.09;;;26.76
54608;BMP280;40506;37.576;-122.034;2022-07-29T00:26:30;101270.88;;;26.84
54608;BMP280;40506;37.576;-122.034;2022-07-29T00:28:33;101281.44;;;26.85
54608;BMP280;40506;37.576;-122.034;2022-07-29T00:30:34;101236.22;;;26.55
54608;BMP280;40506;37.576;-122.034;2022-07-29T00:32:35;101281.03;;;26.83
54608;BMP280;40506;37.576;-122.034;2022-07-29T00:34:37;101275.50;;;26.80
54608;BMP280;40506;37.576;-122.034;2022-07-29T00:36:57;101283.00;;;26.86
54608;BMP280;40506;37.576;-122.034;2022-07-29T00:38:58;101266.50;;;26.76
54608;BMP280;40506;37.576;-122.034;2022-07-29T00:41:00;101268.03;;;26.73
54608;BMP280;40506;37.576;-122.034;2022-07-29T00:43:01;101268.72;;;26.67
54608;BMP280;40506;37.576;-122.034;2022-07-29T00:45:02;101282.13;;;26.79
54608;BMP280;40506;37.576;-122.034;2022-07-29T00:47:04;101269.56;;;26.71
54608;BMP280;40506;37.576;-122.034;2022-07-29T00:49:05;101289.97;;;26.80
54608;BMP280;40506;37.576;-122.034;2022-07-29T00:51:08;101274.63;;;26.69
54608;BMP280;40506;37.576;-122.034;2022-07-29T00:53:12;101275.78;;;26.68
54608;BMP280;40506;37.576;-122.034;2022-07-29T00:55:15;101298.50;;;26.79
54608;BMP280;40506;37.576;-122.034;2022-07-29T00:57:16;101291.88;;;26.76
54608;BMP280;40506;37.576;-122.034;2022-07-29T00:59:18;101284.47;;;26.77
54608;BMP280;40506;37.576;-122.034;2022-07-29T01:01:19;101295.78;;;26.75
54608;BMP280;40506;37.576;-122.034;2022-07-29T01:03:20;101301.66;;;26.77
54608;BMP280;40506;37.576;-122.034;2022-07-29T01:05:23;101303.59;;;26.77
54608;BMP280;40506;37.576;-122.034;2022-07-29T01:07:26;101308.28;;;26.76
54608;BMP280;40506;37.576;-122.034;2022-07-29T01:09:28;101298.94;;;26.77
54608;BMP280;40506;37.576;-122.034;2022-07-29T01:11:29;101267.84;;;26.56
54608;BMP280;40506;37.576;-122.034;2022-07-29T01:13:31;101292.53;;;26.66
54608;BMP280;40506;37.576;-122.034;2022-07-29T01:15:39;101274.84;;;26.57
54608;BMP280;40506;37.576;-122.034;2022-07-29T01:17:45;101307.81;;;26.71
54608;BMP280;40506;37.576;-122.034;2022-07-29T01:24:39;101305.44;;;26.69
54608;BMP280;40506;37.576;-122.034;2022-07-29T01:31:16;101286.56;;;26.57
54608;BMP280;40506;37.576;-122.034;2022-07-29T01:33:20;101295.19;;;26.63
54608;BMP280;40506;37.576;-122.034;2022-07-29T01:35:43;101276.34;;;26.51
54608;BMP280;40506;37.576;-122.034;2022-07-29T01:40:01;101279.84;;;26.51
54608;BMP280;40506;37.576;-122.034;2022-07-29T01:42:12;101305.50;;;26.73
54608;BMP280;40506;37.576;-122.034;2022-07-29T01:44:20;101284.66;;;26.61
54608;BMP280;40506;37.576;-122.034;2022-07-29T01:46:35;101263.00;;;26.45
54608;BMP280;40506;37.576;-122.034;2022-07-29T01:48:40;101304.00;;;26.75
54608;BMP280;40506;37.576;-122.034;2022-07-29T01:50:52;101292.91;;;26.65
54608;BMP280;40506;37.576;-122.034;2022-07-29T01:52:58;101282.72;;;26.62
54608;BMP280;40506;37.576;-122.034;2022-07-29T01:55:04;101304.75;;;26.76
54608;BMP280;40506;37.576;-122.034;2022-07-29T01:57:12;101299.22;;;26.69
54608;BMP280;40506;37.576;-122.034;2022-07-29T01:59:15;101306.13;;;26.63
54608;BMP280;40506;37.576;-122.034;2022-07-29T02:01:18;101314.31;;;26.03
54608;BMP280;40506;37.576;-122.034;2022-07-29T02:03:20;101306.13;;;25.58
54608;BMP280;40506;37.576;-122.034;2022-07-29T02:05:24;101306.88;;;25.77
54608;BMP280;40506;37.576;-122.034;2022-07-29T02:07:29;101301.31;;;25.28
54608;BMP280;40506;37.576;-122.034;2022-07-29T02:09:34;101314.25;;;25.12
54608;BMP280;40506;37.576;-122.034;2022-07-29T02:11:37;101329.59;;;25.20
54608;BMP280;40506;37.576;-122.034;2022-07-29T02:13:40;101313.81;;;24.72
54608;BMP280;40506;37.576;-122.034;2022-07-29T02:15:43;101315.66;;;24.68
54608;BMP280;40506;37.576;-122.034;2022-07-29T02:17:49;101312.72;;;24.77
54608;BMP280;40506;37.576;-122.034;2022-07-29T02:19:54;101303.97;;;25.25
54608;BMP280;40506;37.576;-122.034;2022-07-29T02:21:57;101315.47;;;25.15
54608;BMP280;40506;37.576;-122.034;2022-07-29T02:24:01;101307.75;;;24.79
54608;BMP280;40506;37.576;-122.034;2022-07-29T02:26:03;101335.34;;;25.38
54608;BMP280;40506;37.576;-122.034;2022-07-29T02:28:08;101333.81;;;25.37
54608;BMP280;40506;37.576;-122.034;2022-07-29T02:30:10;101334.47;;;25.31
54608;BMP280;40506;37.576;-122.034;2022-07-29T02:32:14;101340.81;;;25.38
54608;BMP280;40506;37.576;-122.034;2022-07-29T02:34:18;101339.50;;;25.09
54608;BMP280;40506;37.576;-122.034;2022-07-29T02:36:22;101333.53;;;25.04
54608;BMP280;40506;37.576;-122.034;2022-07-29T02:38:27;101337.81;;;25.43
54608;BMP280;40506;37.576;-122.034;2022-07-29T02:40:48;101339.41;;;25.25
54608;BMP280;40506;37.576;-122.034;2022-07-29T02:42:51;101333.34;;;25.12
54608;BMP280;40506;37.576;-122.034;2022-07-29T02:44:53;101309.38;;;25.02
54608;BMP280;40506;37.576;-122.034;2022-07-29T02:49:18;101328.78;;;25.01
54608;BMP280;40506;37.576;-122.034;2022-07-29T02:51:41;101287.97;;;24.66
54608;BMP280;40506;37.576;-122.034;2022-07-29T02:53:49;101336.94;;;25.39
54608;BMP280;40506;37.576;-122.034;2022-07-29T02:55:57;101347.38;;;25.14
54608;BMP280;40506;37.576;-122.034;2022-07-29T02:58:12;101319.75;;;24.58
54608;BMP280;40506;37.576;-122.034;2022-07-29T03:00:15;101346.03;;;24.35
54608;BMP280;40506;37.576;-122.034;2022-07-29T03:02:20;101348.69;;;24.16
54608;BMP280;40506;37.576;-122.034;2022-07-29T03:04:24;101318.69;;;23.10
54608;BMP280;40506;37.576;-122.034;2022-07-29T03:06:27;101359.13;;;23.27
54608;BMP280;40506;37.576;-122.034;2022-07-29T03:08:33;101298.34;;;23.32
54608;BMP280;40506;37.576;-122.034;2022-07-29T03:10:37;101338.75;;;24.39
54608;BMP280;40506;37.576;-122.034;2022-07-29T03:12:40;101352.38;;;23.92
54608;BMP280;40506;37.576;-122.034;2022-07-29T03:14:43;101338.94;;;24.15
54608;BMP280;40506;37.576;-122.034;2022-07-29T03:16:44;101355.00;;;24.20
54608;BMP280;40506;37.576;-122.034;2022-07-29T03:18:47;101323.25;;;24.08
54608;BMP280;40506;37.576;-122.034;2022-07-29T03:20:48;101338.16;;;24.14
54608;BMP280;40506;37.576;-122.034;2022-07-29T03:22:50;101319.19;;;24.02
54608;BMP280;40506;37.576;-122.034;2022-07-29T03:24:51;101329.81;;;23.33
54608;BMP280;40506;37.576;-122.034;2022-07-29T03:26:54;101342.31;;;23.10
54608;BMP280;40506;37.576;-122.034;2022-07-29T03:28:56;101326.72;;;23.19
54608;BMP280;40506;37.576;-122.034;2022-07-29T03:30:57;101345.06;;;23.65
54608;BMP280;40506;37.576;-122.034;2022-07-29T03:32:58;101334.97;;;23.22
54608;BMP280;40506;37.576;-122.034;2022-07-29T03:35:00;101311.91;;;23.32
54608;BMP280;40506;37.576;-122.034;2022-07-29T03:37:01;101324.38;;;23.33
54608;BMP280;40506;37.576;-122.034;2022-07-29T03:39:04;101338.06;;;23.36
54608;BMP280;40506;37.576;-122.034;2022-07-29T03:41:09;101350.56;;;22.61
54608;BMP280;40506;37.576;-122.034;2022-07-29T03:43:11;101354.41;;;22.84
54608;BMP280;40506;37.576;-122.034;2022-07-29T03:45:16;101341.28;;;22.38
54608;BMP280;40506;37.576;-122.034;2022-07-29T03:47:22;101316.19;;;22.17
54608;BMP280;40506;37.576;-122.034;2022-07-29T03:49:26;101330.66;;;22.81
54608;BMP280;40506;37.576;-122.034;2022-07-29T03:51:29;101348.06;;;22.56
54608;BMP280;40506;37.576;-122.034;2022-07-29T03:53:30;101352.06;;;22.02
54608;BMP280;40506;37.576;-122.034;2022-07-29T03:55:37;101338.38;;;21.98
54608;BMP280;40506;37.576;-122.034;2022-07-29T03:57:41;101350.09;;;22.35
54608;BMP280;40506;37.576;-122.034;2022-07-29T03:59:43;101353.75;;;22.51
54608;BMP280;40506;37.576;-122.034;2022-07-29T04:01:46;101366.56;;;22.18
54608;BMP280;40506;37.576;-122.034;2022-07-29T04:03:47;101300.53;;;21.77
54608;BMP280;40506;37.576;-122.034;2022-07-29T04:06:05;101338.66;;;22.17
54608;BMP280;40506;37.576;-122.034;2022-07-29T04:08:07;101328.97;;;22.40
54608;BMP280;40506;37.576;-122.034;2022-07-29T04:10:08;101327.03;;;22.53
54608;BMP280;40506;37.576;-122.034;2022-07-29T04:12:09;101330.44;;;22.38
54608;BMP280;40506;37.576;-122.034;2022-07-29T04:14:11;101351.53;;;22.93
54608;BMP280;40506;37.576;-122.034;2022-07-29T04:16:12;101363.75;;;23.39
54608;BMP280;40506;37.576;-122.034;2022-07-29T04:18:13;101362.00;;;23.46
54608;BMP280;40506;37.576;-122.034;2022-07-29T04:20:14;101352.28;;;23.45
54608;BMP280;40506;37.576;-122.034;2022-07-29T04:22:16;101353.06;;;23.46
54608;BMP280;40506;37.576;-122.034;2022-07-29T04:24:17;101357.13;;;23.52
54608;BMP280;40506;37.576;-122.034;2022-07-29T04:26:19;101357.53;;;22.98
54608;BMP280;40506;37.576;-122.034;2022-07-29T04:28:20;101373.16;;;23.01
54608;BMP280;40506;37.576;-122.034;2022-07-29T04:30:21;101313.97;;;22.95
54608;BMP280;40506;37.576;-122.034;2022-07-29T04:32:26;101344.13;;;23.45
54608;BMP280;40506;37.576;-122.034;2022-07-29T04:34:27;101359.53;;;23.85
54608;BMP280;40506;37.576;-122.034;2022-07-29T04:36:28;101379.66;;;24.11
54608;BMP280;40506;37.576;-122.034;2022-07-29T04:38:30;101376.63;;;24.29
54608;BMP280;40506;37.576;-122.034;2022-07-29T04:40:31;101360.63;;;24.43
54608;BMP280;40506;37.576;-122.034;2022-07-29T04:42:33;101376.22;;;24.61
54608;BMP280;40506;37.576;-122.034;2022-07-29T04:44:34;101353.09;;;24.55
54608;BMP280;40506;37.576;-122.034;2022-07-29T04:46:36;101306.28;;;24.31
54608;BMP280;40506;37.576;-122.034;2022-07-29T04:48:37;101356.50;;;24.68
54608;BMP280;40506;37.576;-122.034;2022-07-29T04:50:39;101336.00;;;24.55
54608;BMP280;40506;37.576;-122.034;2022-07-29T04:52:40;101363.19;;;24.70
54608;BMP280;40506;37.576;-122.034;2022-07-29T04:54:42;101363.25;;;24.74
54608;BMP280;40506;37.576;-122.034;2022-07-29T04:56:43;101387.59;;;24.83
54608;BMP280;40506;37.576;-122.034;2022-07-29T04:58:44;101362.84;;;24.72
54608;BMP280;40506;37.576;-122.034;2022-07-29T05:00:45;101381.84;;;24.88
54608;BMP280;40506;37.576;-122.034;2022-07-29T05:02:47;101374.13;;;24.90
54608;BMP280;40506;37.576;-122.034;2022-07-29T05:04:48;101361.06;;;24.80
54608;BMP280;40506;37.576;-122.034;2022-07-29T05:06:49;101383.22;;;24.97
54608;BMP280;40506;37.576;-122.034;2022-07-29T05:08:50;101393.91;;;25.06
54608;BMP280;40506;37.576;-122.034;2022-07-29T05:10:52;101394.00;;;25.09
54608;BMP280;40506;37.576;-122.034;2022-07-29T05:12:53;101388.56;;;25.09
54608;BMP280;40506;37.576;-122.034;2022-07-29T05:14:54;101369.19;;;24.95
54608;BMP280;40506;37.576;-122.034;2022-07-29T05:16:55;101371.13;;;24.95
54608;BMP280;40506;37.576;-122.034;2022-07-29T05:18:57;101376.94;;;24.93
54608;BMP280;40506;37.576;-122.034;2022-07-29T05:20:58;101397.16;;;25.11
54608;BMP280;40506;37.576;-122.034;2022-07-29T05:23:01;101378.22;;;24.99
54608;BMP280;40506;37.576;-122.034;2022-07-29T05:25:03;101383.72;;;25.03
54608;BMP280;40506;37.576;-122.034;2022-07-29T05:27:05;101404.63;;;25.14
54608;BMP280;40506;37.576;-122.034;2022-07-29T05:29:06;101380.22;;;25.02
54608;BMP280;40506;37.576;-122.034;2022-07-29T05:31:07;101399.53;;;25.13
54608;BMP280;40506;37.576;-122.034;2022-07-29T05:33:09;101392.41;;;25.08
54608;BMP280;40506;37.576;-122.034;2022-07-29T05:35:10;101364.28;;;24.85
54608;BMP280;40506;37.576;-122.034;2022-07-29T05:37:12;101385.25;;;25.00
54608;BMP280;40506;37.576;-122.034;2022-07-29T05:39:14;101410.84;;;25.15
54608;BMP280;40506;37.576;-122.034;2022-07-29T05:41:15;101388.38;;;25.02
54608;BMP280;40506;37.576;-122.034;2022-07-29T05:43:17;101410.50;;;25.16
54608;BMP280;40506;37.576;-122.034;2022-07-29T05:45:18;101403.47;;;25.15
54608;BMP280;40506;37.576;-122.034;2022-07-29T05:47:19;101388.00;;;25.04
54608;BMP280;40506;37.576;-122.034;2022-07-29T05:49:20;101405.69;;;25.10
54608;BMP280;40506;37.576;-122.034;2022-07-29T05:51:22;101396.84;;;24.97
54608;BMP280;40506;37.576;-122.034;2022-07-29T05:53:23;101387.47;;;24.95
54608;BMP280;40506;37.576;-122.034;2022-07-29T05:55:24;101402.75;;;24.99
54608;BMP280;40506;37.576;-122.034;2022-07-29T05:57:26;101403.94;;;25.02
54608;BMP280;40506;37.576;-122.034;2022-07-29T05:59:27;101388.97;;;24.92
54608;BMP280;40506;37.576;-122.034;2022-07-29T06:01:28;101394.56;;;24.99
54608;BMP280;40506;37.576;-122.034;2022-07-29T06:03:29;101377.19;;;24.88
54608;BMP280;40506;37.576;-122.034;2022-07-29T06:05:31;101379.91;;;24.88
54608;BMP280;40506;37.576;-122.034;2022-07-29T06:07:32;101401.50;;;24.97
54608;BMP280;40506;37.576;-122.034;2022-07-29T06:09:34;101381.84;;;24.88
54608;BMP280;40506;37.576;-122.034;2022-07-29T06:11:35;101385.69;;;24.87
54608;BMP280;40506;37.576;-122.034;2022-07-29T06:13:36;101390.00;;;24.88
54608;BMP280;40506;37.576;-122.034;2022-07-29T06:15:38;101409.00;;;25.00
54608;BMP280;40506;37.576;-122.034;2022-07-29T06:17:39;101375.59;;;24.87
54608;BMP280;40506;37.576;-122.034;2022-07-29T06:19:40;101399.38;;;25.06
54608;BMP280;40506;37.576;-122.034;2022-07-29T06:21:43;101396.56;;;25.02
54608;BMP280;40506;37.576;-122.034;2022-07-29T06:23:44;101360.41;;;24.86
54608;BMP280;40506;37.576;-122.034;2022-07-29T06:25:46;101374.72;;;24.99
54608;BMP280;40506;37.576;-122.034;2022-07-29T06:27:47;101385.25;;;25.00
54608;BMP280;40506;37.576;-122.034;2022-07-29T06:29:49;101384.53;;;25.03
54608;BMP280;40506;37.576;-122.034;2022-07-29T06:31:50;101393.13;;;25.05
54608;BMP280;40506;37.576;-122.034;2022-07-29T06:33:51;101387.69;;;25.05
54608;BMP280;40506;37.576;-122.034;2022-07-29T06:35:53;101385.28;;;25.04
54608;BMP280;40506;37.576;-122.034;2022-07-29T06:37:55;101386.88;;;25.05
54608;BMP280;40506;37.576;-122.034;2022-07-29T06:39:56;101399.44;;;25.09
54608;BMP280;40506;37.576;-122.034;2022-07-29T06:42:15;101384.88;;;25.02
54608;BMP280;40506;37.576;-122.034;2022-07-29T06:44:17;101377.78;;;24.97
54608;BMP280;40506;37.576;-122.034;2022-07-29T06:46:20;101349.81;;;24.81
54608;BMP280;40506;37.576;-122.034;2022-07-29T06:48:22;101376.66;;;24.98
54608;BMP280;40506;37.576;-122.034;2022-07-29T06:50:23;101382.94;;;25.02
54608;BMP280;40506;37.576;-122.034;2022-07-29T06:52:24;101392.06;;;25.10
54608;BMP280;40506;37.576;-122.034;2022-07-29T06:54:26;101387.25;;;25.03
54608;BMP280;40506;37.576;-122.034;2022-07-29T06:56:27;101384.53;;;25.03
54608;BMP280;40506;37.576;-122.034;2022-07-29T06:58:29;101385.66;;;25.02
54608;BMP280;40506;37.576;-122.034;2022-07-29T07:00:30;101389.97;;;25.03
54608;BMP280;40506;37.576;-122.034;2022-07-29T07:02:32;101393.41;;;25.00
54608;BMP280;40506;37.576;-122.034;2022-07-29T07:04:33;101377.19;;;24.88
54608;BMP280;40506;37.576;-122.034;2022-07-29T07:06:34;101376.31;;;24.84
54608;BMP280;40506;37.576;-122.034;2022-07-29T07:08:36;101384.09;;;24.82
54608;BMP280;40506;37.576;-122.034;2022-07-29T07:10:37;101382.16;;;24.83
54608;BMP280;40506;37.576;-122.034;2022-07-29T07:12:39;101373.81;;;24.76
54608;BMP280;40506;37.576;-122.034;2022-07-29T07:14:40;101389.13;;;24.84
54608;BMP280;40506;37.576;-122.034;2022-07-29T07:16:41;101390.66;;;24.81
54608;BMP280;40506;37.576;-122.034;2022-07-29T07:18:42;101389.53;;;24.82
54608;BMP280;40506;37.576;-122.034;2022-07-29T07:20:45;101396.13;;;24.81
54608;BMP280;40506;37.576;-122.034;2022-07-29T07:22:47;101374.34;;;24.65
54608;BMP280;40506;37.576;-122.034;2022-07-29T07:24:48;101358.91;;;24.54
54608;BMP280;40506;37.576;-122.034;2022-07-29T07:26:51;101405.47;;;24.84
54608;BMP280;40506;37.576;-122.034;2022-07-29T07:28:53;101397.47;;;24.91
54608;BMP280;40506;37.576;-122.034;2022-07-29T07:30:54;101395.22;;;24.93
54608;BMP280;40506;37.576;-122.034;2022-07-29T07:32:55;101386.16;;;24.89
54608;BMP280;40506;37.576;-122.034;2022-07-29T07:34:57;101403.88;;;24.98
54608;BMP280;40506;37.576;-122.034;2022-07-29T07:36:59;101384.13;;;24.86
54608;BMP280;40506;37.576;-122.034;2022-07-29T07:39:00;101390.59;;;24.97
54608;BMP280;40506;37.576;-122.034;2022-07-29T07:41:02;101393.34;;;24.97
54608;BMP280;40506;37.576;-122.034;2022-07-29T07:43:03;101405.94;;;25.05
54608;BMP280;40506;37.576;-122.034;2022-07-29T07:45:05;101389.75;;;24.93
54608;BMP280;40506;37.576;-122.034;2022-07-29T07:47:06;101363.44;;;24.81
54608;BMP280;40506;37.576;-122.034;2022-07-29T07:49:08;101379.38;;;24.98
54608;BMP280;40506;37.576;-122.034;2022-07-29T07:51:09;101390.31;;;25.02
54608;BMP280;40506;37.576;-122.034;2022-07-29T07:53:10;101382.00;;;24.95
54608;BMP280;40506;37.576;-122.034;2022-07-29T07:55:11;101383.34;;;24.85
54608;BMP280;40506;37.576;-122.034;2022-07-29T07:57:13;101400.75;;;24.96
54608;BMP280;40506;37.576;-122.034;2022-07-29T07:59:16;101401.22;;;25.02
54608;BMP280;40506;37.576;-122.034;2022-07-29T08:01:17;101398.16;;;25.03
54608;BMP280;40506;37.576;-122.034;2022-07-29T08:03:20;101374.72;;;24.83
54608;BMP280;40506;37.576;-122.034;2022-07-29T08:05:21;101389.59;;;24.86
54608;BMP280;40506;37.576;-122.034;2022-07-29T08:07:22;101379.34;;;24.79
54608;BMP280;40506;37.576;-122.034;2022-07-29T08:09:25;101391.59;;;24.89
54608;BMP280;40506;37.576;-122.034;2022-07-29T08:11:27;101370.31;;;24.75
54608;BMP280;40506;37.576;-122.034;2022-07-29T08:13:29;101378.63;;;24.82
54608;BMP280;40506;37.576;-122.034;2022-07-29T08:15:32;101378.81;;;24.74
54608;BMP280;40506;37.576;-122.034;2022-07-29T08:17:34;101390.94;;;24.76
54608;BMP280;40506;37.576;-122.034;2022-07-29T08:19:35;101366.56;;;24.64
54608;BMP280;40506;37.576;-122.034;2022-07-29T08:21:37;101394.19;;;24.82
54608;BMP280;40506;37.576;-122.034;2022-07-29T08:23:39;101324.00;;;24.40
54608;BMP280;40506;37.576;-122.034;2022-07-29T08:25:46;101381.19;;;24.75
54608;BMP280;40506;37.576;-122.034;2022-07-29T08:27:48;101387.88;;;24.78
54608;BMP280;40506;37.576;-122.034;2022-07-29T08:29:49;101369.00;;;24.69
54608;BMP280;40506;37.576;-122.034;2022-07-29T08:31:50;101391.38;;;24.78
54608;BMP280;40506;37.576;-122.034;2022-07-29T08:33:51;101372.06;;;24.67
54608;BMP280;40506;37.576;-122.034;2022-07-29T08:35:53;101375.22;;;24.69
54608;BMP280;40506;37.576;-122.034;2022-07-29T08:37:54;101385.06;;;24.74
54608;BMP280;40506;37.576;-122.034;2022-07-29T08:39:57;101373.13;;;24.63
54608;BMP280;40506;37.576;-122.034;2022-07-29T08:41:58;101376.16;;;24.77
54608;BMP280;40506;37.576;-122.034;2022-07-29T08:43:59;101378.63;;;24.82
54608;BMP280;40506;37.576;-122.034;2022-07-29T08:46:01;101377.09;;;24.85
54608;BMP280;40506;37.576;-122.034;2022-07-29T08:48:02;101360.13;;;24.72
54608;BMP280;40506;37.576;-122.034;2022-07-29T08:50:04;101379.50;;;24.86
54608;BMP280;40506;37.576;-122.034;2022-07-29T08:54:25;101374.38;;;24.85
54608;BMP280;40506;37.576;-122.034;2022-07-29T08:56:28;101384.22;;;24.89
54608;BMP280;40506;37.576;-122.034;2022-07-29T08:58:31;101382.63;;;24.88
54608;BMP280;40506;37.576;-122.034;2022-07-29T09:00:33;101383.78;;;24.87
54608;BMP280;40506;37.576;-122.034;2022-07-29T09:02:40;101368.69;;;24.90
54608;BMP280;40506;37.576;-122.034;2022-07-29T09:04:42;101369.28;;;24.83
54608;BMP280;40506;37.576;-122.034;2022-07-29T09:06:47;101352.47;;;24.78
54608;BMP280;40506;37.576;-122.034;2022-07-29T09:08:49;101346.50;;;24.72
54608;BMP280;40506;37.576;-122.034;2022-07-29T09:10:50;101366.28;;;24.88
54608;BMP280;40506;37.576;-122.034;2022-07-29T09:12:53;101359.13;;;24.80
54608;BMP280;40506;37.576;-122.034;2022-07-29T09:14:55;101353.59;;;24.77
54608;BMP280;40506;37.576;-122.034;2022-07-29T09:16:56;101336.31;;;24.69
54608;BMP280;40506;37.576;-122.034;2022-07-29T09:18:57;101366.53;;;24.83
54608;BMP280;40506;37.576;-122.034;2022-07-29T09:20:58;101347.88;;;24.66
54608;BMP280;40506;37.576;-122.034;2022-07-29T09:23:18;101341.63;;;24.62
54608;BMP280;40506;37.576;-122.034;2022-07-29T09:25:36;101323.38;;;24.47
54608;BMP280;40506;37.576;-122.034;2022-07-29T09:27:38;101355.72;;;24.67
54608;BMP280;40506;37.576;-122.034;2022-07-29T09:29:39;101348.34;;;24.68
54608;BMP280;40506;37.576;-122.034;2022-07-29T09:31:42;101331.78;;;24.57
54608;BMP280;40506;37.576;-122.034;2022-07-29T09:33:44;101294.97;;;24.29
54608;BMP280;40506;37.576;-122.034;2022-07-29T09:35:45;101350.03;;;24.57
54608;BMP280;40506;37.576;-122.034;2022-07-29T09:37:47;101301.22;;;24.29
54608;BMP280;40506;37.576;-122.034;2022-07-29T09:39:48;101316.25;;;24.42
54608;BMP280;40506;37.576;-122.034;2022-07-29T09:41:52;101336.78;;;24.55
54608;BMP280;40506;37.576;-122.034;2022-07-29T09:43:58;101341.16;;;24.60
54608;BMP280;40506;37.576;-122.034;2022-07-29T09:46:17;101344.69;;;24.60
54608;BMP280;40506;37.576;-122.034;2022-07-29T09:48:21;101310.47;;;24.44
54608;BMP280;40506;37.576;-122.034;2022-07-29T09:50:22;101320.00;;;24.53
54608;BMP280;40506;37.576;-122.034;2022-07-29T09:52:27;101319.22;;;24.53
54608;BMP280;40506;37.576;-122.034;2022-07-29T09:54:29;101349.56;;;24.70
54608;BMP280;40506;37.576;-122.034;2022-07-29T09:56:42;101299.13;;;24.42
54608;BMP280;40506;37.576;-122.034;2022-07-29T09:58:43;101343.19;;;24.63
54608;BMP280;40506;37.576;-122.034;2022-07-29T10:00:46;101329.41;;;24.56
54608;BMP280;40506;37.576;-122.034;2022-07-29T10:02:48;101339.25;;;24.60
54608;BMP280;40506;37.576;-122.034;2022-07-29T10:04:49;101335.38;;;24.61
54608;BMP280;40506;37.576;-122.034;2022-07-29T10:06:58;101335.44;;;24.65
54608;BMP280;40506;37.576;-122.034;2022-07-29T10:09:09;101324.75;;;24.56
54608;BMP280;40506;37.576;-122.034;2022-07-29T10:11:15;101319.22;;;24.53
54608;BMP280;40506;37.576;-122.034;2022-07-29T10:13:17;101326.69;;;24.56
54608;BMP280;40506;37.576;-122.034;2022-07-29T10:15:18;101313.78;;;24.53
54608;BMP280;40506;37.576;-122.034;2022-07-29T10:17:22;101334.59;;;24.61
54608;BMP280;40506;37.576;-122.034;2022-07-29T10:19:24;101335.81;;;24.63
54608;BMP280;40506;37.576;-122.034;2022-07-29T10:21:26;101335.94;;;24.70
54608;BMP280;40506;37.576;-122.034;2022-07-29T10:23:28;101315.00;;;24.55
54608;BMP280;40506;37.576;-122.034;2022-07-29T10:25:30;101305.97;;;24.51
54608;BMP280;40506;37.576;-122.034;2022-07-29T10:27:32;101320.81;;;24.54
54608;BMP280;40506;37.576;-122.034;2022-07-29T10:29:33;101329.84;;;24.58
54608;BMP280;40506;37.576;-122.034;2022-07-29T10:34:43;101331.25;;;24.52
54608;BMP280;40506;37.576;-122.034;2022-07-29T10:36:59;101324.66;;;24.53
54608;BMP280;40506;37.576;-122.034;2022-07-29T10:44:17;101296.09;;;24.28
54608;BMP280;40506;37.576;-122.034;2022-07-29T10:46:19;101275.56;;;24.14
54608;BMP280;40506;37.576;-122.034;2022-07-29T10:48:21;101297.69;;;24.29
54608;BMP280;40506;37.576;-122.034;2022-07-29T10:50:22;101321.63;;;24.39
54608;BMP280;40506;37.576;-122.034;2022-07-29T10:52:23;101292.41;;;24.20
54608;BMP280;40506;37.576;-122.034;2022-07-29T10:56:38;101321.00;;;24.45
54608;BMP280;40506;37.576;-122.034;2022-07-29T10:58:41;101304.31;;;24.31
54608;BMP280;40506;37.576;-122.034;2022-07-29T11:00:42;101318.34;;;24.49
54608;BMP280;40506;37.576;-122.034;2022-07-29T11:02:47;101297.41;;;24.34
54608;BMP280;40506;37.576;-122.034;2022-07-29T11:07:06;101328.09;;;24.50
54608;BMP280;40506;37.576;-122.034;2022-07-29T11:09:18;101307.69;;;24.40
54608;BMP280;40506;37.576;-122.034;2022-07-29T11:13:51;101334.41;;;24.54
54608;BMP280;40506;37.576;-122.034;2022-07-29T11:15:54;101310.31;;;24.37
54608;BMP280;40506;37.576;-122.034;2022-07-29T11:20:38;101328.97;;;24.54
54608;BMP280;40506;37.576;-122.034;2022-07-29T11:22:43;101311.69;;;24.46
54608;BMP280;40506;37.576;-122.034;2022-07-29T11:25:17;101316.34;;;24.46
54608;BMP280;40506;37.576;-122.034;2022-07-29T11:27:19;101316.41;;;24.49
54608;BMP280;40506;37.576;-122.034;2022-07-29T11:29:23;101318.00;;;24.50
54608;BMP280;40506;37.576;-122.034;2022-07-29T11:31:40;101307.31;;;24.42
54608;BMP280;40506;37.576;-122.034;2022-07-29T11:33:45;101284.78;;;24.26
54608;BMP280;40506;37.576;-122.034;2022-07-29T11:36:09;101320.22;;;24.45
54608;BMP280;40506;37.576;-122.034;2022-07-29T11:38:27;101313.47;;;24.39
54608;BMP280;40506;37.576;-122.034;2022-07-29T11:40:29;101312.16;;;24.33
54608;BMP280;40506;37.576;-122.034;2022-07-29T11:42:37;101313.38;;;24.35
54608;BMP280;40506;37.576;-122.034;2022-07-29T11:45:17;101319.03;;;24.27